Camellia — VRCP9 — position and weather

sailwx.info

Track history (hours):
 
Tides and Currents Weather Stations Pressure Air Temp Water Temp Dewpoint Dewpoint Depression Visibility Wind Speed Wind Dir Waves Ship Positions

Camellia

Last reported at 2015-Mar-31 04:28 UTC. Time now 2015-Mar-31 05:23 UTC.
Position N 51°17' E 004°16'.

Length 222 m; draft 8.8 m.

Type: Ship (hazmat cat C). MMSI: 477791900.

Date/timePositionNaut miles runAvg speedWind from/ knotsBaromVisibWave heightAir tempDewpointWater temp
2015-Mar-31 04:28N 51°17' E 004°16'0 0.0
2015-Mar-31 03:31N 51°17' E 004°16'0 0.0
2015-Mar-31 02:28N 51°17' E 004°16'0 0.0
2015-Mar-31 01:31N 51°17' E 004°16'0 0.0
2015-Mar-31 00:31N 51°17' E 004°16'0 0.0
2015-Mar-30 23:31N 51°17' E 004°16'0 0.0
2015-Mar-30 22:31N 51°17' E 004°16'0 0.0
2015-Mar-30 21:31N 51°17' E 004°16'0 0.0
2015-Mar-30 20:31N 51°17' E 004°16'0 0.2
2015-Mar-30 19:33N 51°17' E 004°15'4 4.4
2015-Mar-30 18:33N 51°22' E 004°13'10 9.5
2015-Mar-30 17:34N 51°26' E 004°00'1111.1
2015-Mar-30 16:33N 51°23' E 003°43'10 9.5
2015-Mar-30 15:34N 51°25' E 003°28'1615.9
2015-Mar-30 14:33N 51°25' E 003°03'1414.0
2015-Mar-30 13:31N 51°38' E 003°11'1010.6
2015-Mar-30 12:33N 51°48' E 003°15'1311.7
2015-Mar-30 11:28N 52°00' E 003°21'2612.4
2015-Mar-30 09:22N 52°26' E 003°27'6314.8
2015-Mar-30 05:04N 53°17' E 004°29'1016.3
2015-Mar-30 04:27N 53°27' E 004°36'1415.9
2015-Mar-30 03:33N 53°33' E 004°57'1616.0
2015-Mar-30 02:33N 53°38' E 005°22'1514.9
2015-Mar-30 01:33N 53°43' E 005°46'1514.4
2015-Mar-30 00:31N 53°48' E 006°10'3315.2
2015-Mar-29 22:22N 53°56' E 007°04'1215.1
2015-Mar-29 21:33N 53°59' E 007°24'1515.3
2015-Mar-29 20:33N 54°02' E 007°50'1615.6
2015-Mar-29 19:33N 54°00' E 008°16'1515.3
2015-Mar-29 18:33N 53°55' E 008°41'1312.7
2015-Mar-29 17:34N 53°52' E 009°01'1211.8
2015-Mar-29 16:33N 53°50' E 009°21'1313.0
2015-Mar-29 15:33N 53°38' E 009°31'1111.0
2015-Mar-29 14:33N 53°33' E 009°48'5 4.4
2015-Mar-29 13:32N 53°32' E 009°55'0 0.0
2015-Mar-29 12:32N 53°32' E 009°55'0 0.0
2015-Mar-29 11:32N 53°32' E 009°55'0 0.0
2015-Mar-29 10:31N 53°32' E 009°55'0 0.0
2015-Mar-29 09:28N 53°32' E 009°55'0 0.0
2015-Mar-29 08:28N 53°32' E 009°55'0 0.0
2015-Mar-29 07:32N 53°32' E 009°55'0 0.0
2015-Mar-29 06:28N 53°32' E 009°55'0 0.0
2015-Mar-29 05:28N 53°32' E 009°55'0 0.0
2015-Mar-29 04:28N 53°32' E 009°55'0 0.0
2015-Mar-29 03:29N 53°32' E 009°55'0 0.0
2015-Mar-29 01:28N 53°32' E 009°55'0 0.0
2015-Mar-29 00:31N 53°32' E 009°55'0 0.0
2015-Mar-28 23:28N 53°32' E 009°55'0 0.0
2015-Mar-28 22:28N 53°32' E 009°55'0 0.0
2015-Mar-28 21:28N 53°32' E 009°55'0 0.0
2015-Mar-28 20:31N 53°32' E 009°55'0 0.0
2015-Mar-28 19:28N 53°32' E 009°55'0 0.0
2015-Mar-28 18:28N 53°32' E 009°55'0 0.0
2015-Mar-28 17:25N 53°32' E 009°55'0 0.0
2015-Mar-28 16:31N 53°32' E 009°55'0 0.1
2015-Mar-28 15:32N 53°32' E 009°55'5 4.6
2015-Mar-28 14:33N 53°33' E 009°48'1111.2
2015-Mar-28 13:33N 53°39' E 009°31'1312.9
2015-Mar-28 12:34N 53°50' E 009°21'1110.7
2015-Mar-28 11:33N 53°52' E 009°03'1212.2
2015-Mar-28 10:33N 53°53' E 008°42'1313.5
2015-Mar-28 09:33N 53°59' E 008°22'1312.4
2015-Mar-28 08:32N 53°59' E 008°01'1313.3
2015-Mar-28 07:34N 53°56' E 007°39'1817.3
2015-Mar-28 06:32N 53°52' E 007°10'1818.0
2015-Mar-28 05:33N 53°48' E 006°41'1817.9
2015-Mar-28 04:34N 53°42' E 006°12'1818.3
2015-Mar-28 03:34N 53°37' E 005°42'1818.4
2015-Mar-28 02:34N 53°31' E 005°13'1918.5
2015-Mar-28 01:34N 53°25' E 004°44'1918.8
2015-Mar-28 00:34N 53°08' E 004°29'1918.8
2015-Mar-27 23:33N 52°51' E 004°15'1918.7
2015-Mar-27 22:33N 52°39' E 003°51'1918.9
2015-Mar-27 21:33N 52°26' E 003°29'1919.1
2015-Mar-27 20:33N 52°11' E 003°09'2019.2
2015-Mar-27 19:31N 51°56' E 002°49'1919.7
2015-Mar-27 18:32N 51°41' E 002°28'1919.4
2015-Mar-27 17:34N 51°25' E 002°12'1817.9
2015-Mar-27 16:34N 51°11' E 001°55'1919.3
2015-Mar-27 15:33N 50°58' E 001°32'2018.9
2015-Mar-27 14:31N 50°40' E 001°18'4018.9
2015-Mar-27 12:24N 50°22' E 000°22'5619.7
2015-Mar-27 09:33N 50°07' W 001°03'75918.5
2015-Mar-25 16:31N 39°08' W 009°50'1717.4
2015-Mar-25 15:34N 38°51' W 009°50'1717.1
2015-Mar-25 14:33N 38°34' W 009°49'1716.8
2015-Mar-25 13:33N 38°18' W 009°44'1616.2
2015-Mar-25 12:33N 38°02' W 009°40'1414.1
2015-Mar-25 11:33N 37°48' W 009°35'1212.4
2015-Mar-25 10:33N 37°36' W 009°31'1411.7
2015-Mar-25 09:22N 37°22' W 009°28'  
2015-Mar-22 12:33N 35°57' W 005°34'4 0.3
2015-Mar-21 21:33N 35°53' W 005°34'8 1.6
2015-Mar-21 16:31N 35°59' W 005°28'1111.1
2015-Mar-21 15:34N 36°03' W 005°15'  
Track history (hours):
 
Tides and Currents Weather Stations Pressure Air Temp Water Temp Dewpoint Dewpoint Depression Visibility Wind Speed Wind Dir Waves Ship Positions

Camellia

Last reported at 2015-Mar-31 04:28 UTC. Time now 2015-Mar-31 05:23 UTC.
Position N 51°17' E 004°16'.

Length 222 m; draft 8.8 m.

Type: Ship (hazmat cat C). MMSI: 477791900.

Date/timePositionNaut miles runAvg speedWind from/ knotsBaromVisibWave heightAir tempDewpointWater temp
2015-Mar-31 04:28N 51°17' E 004°16'0 0.0
2015-Mar-31 03:31N 51°17' E 004°16'0 0.0
2015-Mar-31 02:28N 51°17' E 004°16'0 0.0
2015-Mar-31 01:31N 51°17' E 004°16'0 0.0
2015-Mar-31 00:31N 51°17' E 004°16'0 0.0
2015-Mar-30 23:31N 51°17' E 004°16'0 0.0
2015-Mar-30 22:31N 51°17' E 004°16'0 0.0
2015-Mar-30 21:31N 51°17' E 004°16'0 0.0
2015-Mar-30 20:31N 51°17' E 004°16'0 0.2
2015-Mar-30 19:33N 51°17' E 004°15'4 4.4
2015-Mar-30 18:33N 51°22' E 004°13'10 9.5
2015-Mar-30 17:34N 51°26' E 004°00'1111.1
2015-Mar-30 16:33N 51°23' E 003°43'10 9.5
2015-Mar-30 15:34N 51°25' E 003°28'1615.9
2015-Mar-30 14:33N 51°25' E 003°03'1414.0
2015-Mar-30 13:31N 51°38' E 003°11'1010.6
2015-Mar-30 12:33N 51°48' E 003°15'1311.7
2015-Mar-30 11:28N 52°00' E 003°21'2612.4
2015-Mar-30 09:22N 52°26' E 003°27'6314.8
2015-Mar-30 05:04N 53°17' E 004°29'1016.3
2015-Mar-30 04:27N 53°27' E 004°36'1415.9
2015-Mar-30 03:33N 53°33' E 004°57'1616.0
2015-Mar-30 02:33N 53°38' E 005°22'1514.9
2015-Mar-30 01:33N 53°43' E 005°46'1514.4
2015-Mar-30 00:31N 53°48' E 006°10'3315.2
2015-Mar-29 22:22N 53°56' E 007°04'1215.1
2015-Mar-29 21:33N 53°59' E 007°24'1515.3
2015-Mar-29 20:33N 54°02' E 007°50'1615.6
2015-Mar-29 19:33N 54°00' E 008°16'1515.3
2015-Mar-29 18:33N 53°55' E 008°41'1312.7
2015-Mar-29 17:34N 53°52' E 009°01'1211.8
2015-Mar-29 16:33N 53°50' E 009°21'1313.0
2015-Mar-29 15:33N 53°38' E 009°31'1111.0
2015-Mar-29 14:33N 53°33' E 009°48'5 4.4
2015-Mar-29 13:32N 53°32' E 009°55'0 0.0
2015-Mar-29 12:32N 53°32' E 009°55'0 0.0
2015-Mar-29 11:32N 53°32' E 009°55'0 0.0
2015-Mar-29 10:31N 53°32' E 009°55'0 0.0
2015-Mar-29 09:28N 53°32' E 009°55'0 0.0
2015-Mar-29 08:28N 53°32' E 009°55'0 0.0
2015-Mar-29 07:32N 53°32' E 009°55'0 0.0
2015-Mar-29 06:28N 53°32' E 009°55'0 0.0
2015-Mar-29 05:28N 53°32' E 009°55'0 0.0
2015-Mar-29 04:28N 53°32' E 009°55'0 0.0
2015-Mar-29 03:29N 53°32' E 009°55'0 0.0
2015-Mar-29 01:28N 53°32' E 009°55'0 0.0
2015-Mar-29 00:31N 53°32' E 009°55'0 0.0
2015-Mar-28 23:28N 53°32' E 009°55'0 0.0
2015-Mar-28 22:28N 53°32' E 009°55'0 0.0
2015-Mar-28 21:28N 53°32' E 009°55'0 0.0
2015-Mar-28 20:31N 53°32' E 009°55'0 0.0
2015-Mar-28 19:28N 53°32' E 009°55'0 0.0
2015-Mar-28 18:28N 53°32' E 009°55'0 0.0
2015-Mar-28 17:25N 53°32' E 009°55'0 0.0
2015-Mar-28 16:31N 53°32' E 009°55'0 0.1
2015-Mar-28 15:32N 53°32' E 009°55'5 4.6
2015-Mar-28 14:33N 53°33' E 009°48'1111.2
2015-Mar-28 13:33N 53°39' E 009°31'1312.9
2015-Mar-28 12:34N 53°50' E 009°21'1110.7
2015-Mar-28 11:33N 53°52' E 009°03'1212.2
2015-Mar-28 10:33N 53°53' E 008°42'1313.5
2015-Mar-28 09:33N 53°59' E 008°22'1312.4
2015-Mar-28 08:32N 53°59' E 008°01'1313.3
2015-Mar-28 07:34N 53°56' E 007°39'1817.3
2015-Mar-28 06:32N 53°52' E 007°10'1818.0
2015-Mar-28 05:33N 53°48' E 006°41'1817.9
2015-Mar-28 04:34N 53°42' E 006°12'1818.3
2015-Mar-28 03:34N 53°37' E 005°42'1818.4
2015-Mar-28 02:34N 53°31' E 005°13'1918.5
2015-Mar-28 01:34N 53°25' E 004°44'1918.8
2015-Mar-28 00:34N 53°08' E 004°29'1918.8
2015-Mar-27 23:33N 52°51' E 004°15'1918.7
2015-Mar-27 22:33N 52°39' E 003°51'1918.9
2015-Mar-27 21:33N 52°26' E 003°29'1919.1
2015-Mar-27 20:33N 52°11' E 003°09'2019.2
2015-Mar-27 19:31N 51°56' E 002°49'1919.7
2015-Mar-27 18:32N 51°41' E 002°28'1919.4
2015-Mar-27 17:34N 51°25' E 002°12'1817.9
2015-Mar-27 16:34N 51°11' E 001°55'1919.3
2015-Mar-27 15:33N 50°58' E 001°32'2018.9
2015-Mar-27 14:31N 50°40' E 001°18'4018.9
2015-Mar-27 12:24N 50°22' E 000°22'5619.7
2015-Mar-27 09:33N 50°07' W 001°03'75918.5
2015-Mar-25 16:31N 39°08' W 009°50'1717.4
2015-Mar-25 15:34N 38°51' W 009°50'1717.1
2015-Mar-25 14:33N 38°34' W 009°49'1716.8
2015-Mar-25 13:33N 38°18' W 009°44'1616.2
2015-Mar-25 12:33N 38°02' W 009°40'1414.1
2015-Mar-25 11:33N 37°48' W 009°35'1212.4
2015-Mar-25 10:33N 37°36' W 009°31'1411.7
2015-Mar-25 09:22N 37°22' W 009°28'  
2015-Mar-22 12:33N 35°57' W 005°34'4 0.3
2015-Mar-21 21:33N 35°53' W 005°34'8 1.6
2015-Mar-21 16:31N 35°59' W 005°28'1111.1
2015-Mar-21 15:34N 36°03' W 005°15'  

Dump ship's entire track history